sensor_id;sensor_type;location;lat;lon;timestamp;temperature;humidity
72883;DHT22;61017;37.812;-122.286;2023-02-15T00:01:16;13.90;60.20
72883;DHT22;61017;37.812;-122.286;2023-02-15T00:02:47;13.90;60.40
72883;DHT22;61017;37.812;-122.286;2023-02-15T00:04:20;13.90;60.60
72883;DHT22;61017;37.812;-122.286;2023-02-15T00:05:51;13.90;60.80
72883;DHT22;61017;37.812;-122.286;2023-02-15T00:07:22;13.90;60.80
72883;DHT22;61017;37.812;-122.286;2023-02-15T00:08:53;13.90;60.90
72883;DHT22;61017;37.812;-122.286;2023-02-15T00:10:24;13.90;61.00
72883;DHT22;61017;37.812;-122.286;2023-02-15T00:11:55;13.90;61.10
72883;DHT22;61017;37.812;-122.286;2023-02-15T00:13:26;13.90;61.10
72883;DHT22;61017;37.812;-122.286;2023-02-15T00:14:57;13.90;62.00
72883;DHT22;61017;37.812;-122.286;2023-02-15T00:16:28;13.90;61.30
72883;DHT22;61017;37.812;-122.286;2023-02-15T00:18:00;13.90;61.30
72883;DHT22;61017;37.812;-122.286;2023-02-15T00:19:31;13.90;61.30
72883;DHT22;61017;37.812;-122.286;2023-02-15T00:21:03;13.90;61.30
72883;DHT22;61017;37.812;-122.286;2023-02-15T00:22:34;13.90;61.20
72883;DHT22;61017;37.812;-122.286;2023-02-15T00:24:06;13.90;61.30
72883;DHT22;61017;37.812;-122.286;2023-02-15T00:25:38;13.90;61.30
72883;DHT22;61017;37.812;-122.286;2023-02-15T00:27:09;13.90;61.10
72883;DHT22;61017;37.812;-122.286;2023-02-15T00:28:40;13.90;61.40
72883;DHT22;61017;37.812;-122.286;2023-02-15T00:30:11;13.90;61.50
72883;DHT22;61017;37.812;-122.286;2023-02-15T00:31:42;13.90;61.40
72883;DHT22;61017;37.812;-122.286;2023-02-15T00:33:13;13.90;61.60
72883;DHT22;61017;37.812;-122.286;2023-02-15T00:34:44;13.90;61.60
72883;DHT22;61017;37.812;-122.286;2023-02-15T00:36:15;13.90;61.70
72883;DHT22;61017;37.812;-122.286;2023-02-15T00:37:46;13.90;61.60
72883;DHT22;61017;37.812;-122.286;2023-02-15T00:39:18;13.90;61.70
72883;DHT22;61017;37.812;-122.286;2023-02-15T00:40:55;13.90;61.80
72883;DHT22;61017;37.812;-122.286;2023-02-15T00:42:26;13.90;61.90
72883;DHT22;61017;37.812;-122.286;2023-02-15T00:43:57;13.90;61.80
72883;DHT22;61017;37.812;-122.286;2023-02-15T00:45:28;13.90;61.80
72883;DHT22;61017;37.812;-122.286;2023-02-15T00:46:59;13.90;61.80
72883;DHT22;61017;37.812;-122.286;2023-02-15T00:48:31;13.90;61.80
72883;DHT22;61017;37.812;-122.286;2023-02-15T00:50:02;13.90;61.70
72883;DHT22;61017;37.812;-122.286;2023-02-15T00:51:33;13.90;61.60
72883;DHT22;61017;37.812;-122.286;2023-02-15T00:53:04;13.90;61.70
72883;DHT22;61017;37.812;-122.286;2023-02-15T00:54:35;13.90;61.80
72883;DHT22;61017;37.812;-122.286;2023-02-15T00:56:06;13.90;61.80
72883;DHT22;61017;37.812;-122.286;2023-02-15T00:57:37;13.90;61.60
72883;DHT22;61017;37.812;-122.286;2023-02-15T00:59:08;13.90;61.50
72883;DHT22;61017;37.812;-122.286;2023-02-15T01:00:39;13.90;61.50
72883;DHT22;61017;37.812;-122.286;2023-02-15T01:02:10;13.90;61.60
72883;DHT22;61017;37.812;-122.286;2023-02-15T01:03:41;14.00;61.70
72883;DHT22;61017;37.812;-122.286;2023-02-15T01:05:13;13.90;61.60
72883;DHT22;61017;37.812;-122.286;2023-02-15T01:06:44;14.00;61.70
72883;DHT22;61017;37.812;-122.286;2023-02-15T01:08:15;13.90;61.60
72883;DHT22;61017;37.812;-122.286;2023-02-15T01:09:46;13.90;61.70
72883;DHT22;61017;37.812;-122.286;2023-02-15T01:11:18;14.00;61.80
72883;DHT22;61017;37.812;-122.286;2023-02-15T01:12:50;14.00;61.80
72883;DHT22;61017;37.812;-122.286;2023-02-15T01:14:22;13.90;61.50
72883;DHT22;61017;37.812;-122.286;2023-02-15T01:15:53;13.90;61.20
72883;DHT22;61017;37.812;-122.286;2023-02-15T01:17:24;13.90;61.00
72883;DHT22;61017;37.812;-122.286;2023-02-15T01:18:56;13.90;61.10
72883;DHT22;61017;37.812;-122.286;2023-02-15T01:20:27;14.00;61.30
72883;DHT22;61017;37.812;-122.286;2023-02-15T01:21:59;13.90;60.90
72883;DHT22;61017;37.812;-122.286;2023-02-15T01:23:32;13.90;60.60
72883;DHT22;61017;37.812;-122.286;2023-02-15T01:25:03;13.90;60.60
72883;DHT22;61017;37.812;-122.286;2023-02-15T01:26:34;13.90;60.70
72883;DHT22;61017;37.812;-122.286;2023-02-15T01:28:05;13.90;60.50
72883;DHT22;61017;37.812;-122.286;2023-02-15T01:29:36;14.00;60.30
72883;DHT22;61017;37.812;-122.286;2023-02-15T01:31:08;14.00;59.90
72883;DHT22;61017;37.812;-122.286;2023-02-15T01:32:40;14.00;60.00
72883;DHT22;61017;37.812;-122.286;2023-02-15T01:34:11;14.00;60.10
72883;DHT22;61017;37.812;-122.286;2023-02-15T01:35:42;13.90;59.80
72883;DHT22;61017;37.812;-122.286;2023-02-15T01:37:13;13.90;59.90
72883;DHT22;61017;37.812;-122.286;2023-02-15T01:38:45;13.90;60.10
72883;DHT22;61017;37.812;-122.286;2023-02-15T01:40:16;13.90;60.40
72883;DHT22;61017;37.812;-122.286;2023-02-15T01:41:47;13.90;60.50
72883;DHT22;61017;37.812;-122.286;2023-02-15T01:43:18;13.90;60.70
72883;DHT22;61017;37.812;-122.286;2023-02-15T01:44:51;13.90;60.70
72883;DHT22;61017;37.812;-122.286;2023-02-15T01:46:24;13.90;60.70
72883;DHT22;61017;37.812;-122.286;2023-02-15T01:48:02;13.90;60.90
72883;DHT22;61017;37.812;-122.286;2023-02-15T01:49:34;13.90;61.10
72883;DHT22;61017;37.812;-122.286;2023-02-15T01:51:05;13.90;61.10
72883;DHT22;61017;37.812;-122.286;2023-02-15T01:52:37;13.90;61.20
72883;DHT22;61017;37.812;-122.286;2023-02-15T01:54:21;13.90;61.30
72883;DHT22;61017;37.812;-122.286;2023-02-15T01:56:01;13.90;61.30
72883;DHT22;61017;37.812;-122.286;2023-02-15T01:57:34;13.90;61.30
72883;DHT22;61017;37.812;-122.286;2023-02-15T01:59:07;13.90;61.40
72883;DHT22;61017;37.812;-122.286;2023-02-15T02:00:39;13.90;61.50
72883;DHT22;61017;37.812;-122.286;2023-02-15T02:02:11;13.90;61.50
72883;DHT22;61017;37.812;-122.286;2023-02-15T02:05:18;13.90;61.50
72883;DHT22;61017;37.812;-122.286;2023-02-15T02:06:49;13.90;61.60
72883;DHT22;61017;37.812;-122.286;2023-02-15T02:08:21;13.90;61.70
72883;DHT22;61017;37.812;-122.286;2023-02-15T02:09:52;13.90;61.60
72883;DHT22;61017;37.812;-122.286;2023-02-15T02:11:23;13.90;61.50
72883;DHT22;61017;37.812;-122.286;2023-02-15T02:12:55;13.90;61.70
72883;DHT22;61017;37.812;-122.286;2023-02-15T02:14:27;13.90;61.80
72883;DHT22;61017;37.812;-122.286;2023-02-15T02:16:00;13.90;61.80
72883;DHT22;61017;37.812;-122.286;2023-02-15T02:17:42;13.90;61.90
72883;DHT22;61017;37.812;-122.286;2023-02-15T02:24:38;13.90;61.90
72883;DHT22;61017;37.812;-122.286;2023-02-15T02:26:25;13.90;61.90
72883;DHT22;61017;37.812;-122.286;2023-02-15T02:29:48;13.90;62.00
72883;DHT22;61017;37.812;-122.286;2023-02-15T02:34:33;13.90;62.10
72883;DHT22;61017;37.812;-122.286;2023-02-15T02:43:23;13.90;62.10
72883;DHT22;61017;37.812;-122.286;2023-02-15T02:48:24;13.90;62.10
72883;DHT22;61017;37.812;-122.286;2023-02-15T02:50:00;13.90;62.10
72883;DHT22;61017;37.812;-122.286;2023-02-15T02:51:33;13.90;62.20
72883;DHT22;61017;37.812;-122.286;2023-02-15T02:53:04;13.90;62.20
72883;DHT22;61017;37.812;-122.286;2023-02-15T02:54:35;13.90;62.30
72883;DHT22;61017;37.812;-122.286;2023-02-15T02:56:11;13.90;62.30
72883;DHT22;61017;37.812;-122.286;2023-02-15T02:57:47;13.90;62.30
72883;DHT22;61017;37.812;-122.286;2023-02-15T02:59:24;13.90;62.40
72883;DHT22;61017;37.812;-122.286;2023-02-15T03:00:57;13.90;62.40
72883;DHT22;61017;37.812;-122.286;2023-02-15T03:02:32;13.90;62.50
72883;DHT22;61017;37.812;-122.286;2023-02-15T03:04:08;13.90;62.50
72883;DHT22;61017;37.812;-122.286;2023-02-15T03:05:41;13.90;62.50
72883;DHT22;61017;37.812;-122.286;2023-02-15T03:07:15;13.90;62.60
72883;DHT22;61017;37.812;-122.286;2023-02-15T03:08:51;13.90;62.70
72883;DHT22;61017;37.812;-122.286;2023-02-15T03:10:24;13.90;62.70
72883;DHT22;61017;37.812;-122.286;2023-02-15T03:11:55;13.90;62.80
72883;DHT22;61017;37.812;-122.286;2023-02-15T03:13:27;13.90;62.80
72883;DHT22;61017;37.812;-122.286;2023-02-15T03:15:00;13.90;62.70
72883;DHT22;61017;37.812;-122.286;2023-02-15T03:16:32;13.90;62.60
72883;DHT22;61017;37.812;-122.286;2023-02-15T03:18:03;13.90;62.60
72883;DHT22;61017;37.812;-122.286;2023-02-15T03:19:35;13.90;62.50
72883;DHT22;61017;37.812;-122.286;2023-02-15T03:21:08;13.90;62.30
72883;DHT22;61017;37.812;-122.286;2023-02-15T03:22:48;13.80;62.00
72883;DHT22;61017;37.812;-122.286;2023-02-15T03:24:20;13.90;62.10
72883;DHT22;61017;37.812;-122.286;2023-02-15T03:25:52;13.90;62.30
72883;DHT22;61017;37.812;-122.286;2023-02-15T03:27:28;13.80;62.30
72883;DHT22;61017;37.812;-122.286;2023-02-15T03:29:02;13.90;62.30
72883;DHT22;61017;37.812;-122.286;2023-02-15T03:30:34;13.90;62.20
72883;DHT22;61017;37.812;-122.286;2023-02-15T03:32:07;13.90;61.80
72883;DHT22;61017;37.812;-122.286;2023-02-15T03:33:40;13.90;61.30
72883;DHT22;61017;37.812;-122.286;2023-02-15T03:35:13;13.90;61.20
72883;DHT22;61017;37.812;-122.286;2023-02-15T03:38:36;13.80;61.20
72883;DHT22;61017;37.812;-122.286;2023-02-15T03:42:07;13.80;60.60
72883;DHT22;61017;37.812;-122.286;2023-02-15T03:45:23;13.80;60.50
72883;DHT22;61017;37.812;-122.286;2023-02-15T03:47:04;13.80;60.40
72883;DHT22;61017;37.812;-122.286;2023-02-15T03:48:37;13.80;60.30
72883;DHT22;61017;37.812;-122.286;2023-02-15T03:51:43;13.80;60.40
72883;DHT22;61017;37.812;-122.286;2023-02-15T03:53:17;13.80;59.90
72883;DHT22;61017;37.812;-122.286;2023-02-15T03:54:49;13.80;60.10
72883;DHT22;61017;37.812;-122.286;2023-02-15T03:56:20;13.80;59.90
72883;DHT22;61017;37.812;-122.286;2023-02-15T03:57:52;13.80;59.80
72883;DHT22;61017;37.812;-122.286;2023-02-15T03:59:23;13.80;59.70
72883;DHT22;61017;37.812;-122.286;2023-02-15T04:00:55;13.80;59.70
72883;DHT22;61017;37.812;-122.286;2023-02-15T04:02:28;13.80;59.90
72883;DHT22;61017;37.812;-122.286;2023-02-15T04:04:09;13.80;60.00
72883;DHT22;61017;37.812;-122.286;2023-02-15T04:05:43;13.80;59.70
72883;DHT22;61017;37.812;-122.286;2023-02-15T04:07:14;13.80;59.60
72883;DHT22;61017;37.812;-122.286;2023-02-15T04:08:45;13.80;59.60
72883;DHT22;61017;37.812;-122.286;2023-02-15T04:10:16;13.80;59.50
72883;DHT22;61017;37.812;-122.286;2023-02-15T04:11:47;13.80;59.50
72883;DHT22;61017;37.812;-122.286;2023-02-15T04:13:19;13.80;59.50
72883;DHT22;61017;37.812;-122.286;2023-02-15T04:14:50;13.80;59.40
72883;DHT22;61017;37.812;-122.286;2023-02-15T04:16:24;13.80;59.40
72883;DHT22;61017;37.812;-122.286;2023-02-15T04:17:55;13.80;59.20
72883;DHT22;61017;37.812;-122.286;2023-02-15T04:19:26;13.80;59.40
72883;DHT22;61017;37.812;-122.286;2023-02-15T04:20:58;13.80;59.40
72883;DHT22;61017;37.812;-122.286;2023-02-15T04:22:29;13.80;59.50
72883;DHT22;61017;37.812;-122.286;2023-02-15T04:24:00;13.80;59.50
72883;DHT22;61017;37.812;-122.286;2023-02-15T04:25:31;13.80;59.50
72883;DHT22;61017;37.812;-122.286;2023-02-15T04:27:02;13.80;59.40
72883;DHT22;61017;37.812;-122.286;2023-02-15T04:28:33;13.80;59.30
72883;DHT22;61017;37.812;-122.286;2023-02-15T04:30:05;13.80;59.30
72883;DHT22;61017;37.812;-122.286;2023-02-15T04:31:36;13.80;59.40
72883;DHT22;61017;37.812;-122.286;2023-02-15T04:33:07;13.80;59.20
72883;DHT22;61017;37.812;-122.286;2023-02-15T04:34:38;13.80;59.20
72883;DHT22;61017;37.812;-122.286;2023-02-15T04:36:09;13.80;59.20
72883;DHT22;61017;37.812;-122.286;2023-02-15T04:37:40;13.80;59.10
72883;DHT22;61017;37.812;-122.286;2023-02-15T04:39:14;13.80;59.20
72883;DHT22;61017;37.812;-122.286;2023-02-15T04:40:49;13.70;59.10
72883;DHT22;61017;37.812;-122.286;2023-02-15T04:42:21;13.80;59.30
72883;DHT22;61017;37.812;-122.286;2023-02-15T04:43:52;13.80;59.20
72883;DHT22;61017;37.812;-122.286;2023-02-15T04:45:23;13.80;59.30
72883;DHT22;61017;37.812;-122.286;2023-02-15T04:46:54;13.70;59.20
72883;DHT22;61017;37.812;-122.286;2023-02-15T04:48:25;13.80;59.20
72883;DHT22;61017;37.812;-122.286;2023-02-15T04:49:56;13.80;59.10
72883;DHT22;61017;37.812;-122.286;2023-02-15T04:51:27;13.70;59.10
72883;DHT22;61017;37.812;-122.286;2023-02-15T04:52:58;13.80;59.20
72883;DHT22;61017;37.812;-122.286;2023-02-15T04:54:29;13.80;59.70
72883;DHT22;61017;37.812;-122.286;2023-02-15T04:56:01;13.70;58.90
72883;DHT22;61017;37.812;-122.286;2023-02-15T04:57:32;13.80;59.00
72883;DHT22;61017;37.812;-122.286;2023-02-15T04:59:04;13.70;59.00
72883;DHT22;61017;37.812;-122.286;2023-02-15T05:00:35;13.70;59.10
72883;DHT22;61017;37.812;-122.286;2023-02-15T05:02:06;13.70;59.20
72883;DHT22;61017;37.812;-122.286;2023-02-15T05:03:37;13.80;59.20
72883;DHT22;61017;37.812;-122.286;2023-02-15T05:05:08;13.80;59.10
72883;DHT22;61017;37.812;-122.286;2023-02-15T05:06:39;13.80;59.00
72883;DHT22;61017;37.812;-122.286;2023-02-15T05:08:10;13.80;58.90
72883;DHT22;61017;37.812;-122.286;2023-02-15T05:09:41;13.70;58.90
72883;DHT22;61017;37.812;-122.286;2023-02-15T05:11:12;13.70;59.10
72883;DHT22;61017;37.812;-122.286;2023-02-15T05:12:43;13.70;59.20
72883;DHT22;61017;37.812;-122.286;2023-02-15T05:14:14;13.70;59.10
72883;DHT22;61017;37.812;-122.286;2023-02-15T05:15:52;13.70;59.20
72883;DHT22;61017;37.812;-122.286;2023-02-15T05:17:23;13.70;59.20
72883;DHT22;61017;37.812;-122.286;2023-02-15T05:18:54;13.80;59.30
72883;DHT22;61017;37.812;-122.286;2023-02-15T05:20:25;13.70;59.00
72883;DHT22;61017;37.812;-122.286;2023-02-15T05:21:56;13.70;59.10
72883;DHT22;61017;37.812;-122.286;2023-02-15T05:23:27;13.70;59.10
72883;DHT22;61017;37.812;-122.286;2023-02-15T05:24:58;13.70;59.10
72883;DHT22;61017;37.812;-122.286;2023-02-15T05:26:29;13.70;58.80
72883;DHT22;61017;37.812;-122.286;2023-02-15T05:28:00;13.70;58.80
72883;DHT22;61017;37.812;-122.286;2023-02-15T05:29:31;13.70;59.00
72883;DHT22;61017;37.812;-122.286;2023-02-15T05:31:07;13.70;58.90
72883;DHT22;61017;37.812;-122.286;2023-02-15T05:32:39;13.70;59.00
72883;DHT22;61017;37.812;-122.286;2023-02-15T05:34:10;13.70;59.00
72883;DHT22;61017;37.812;-122.286;2023-02-15T05:35:41;13.70;59.50
72883;DHT22;61017;37.812;-122.286;2023-02-15T05:37:12;13.70;58.90
72883;DHT22;61017;37.812;-122.286;2023-02-15T05:38:43;13.70;58.90
72883;DHT22;61017;37.812;-122.286;2023-02-15T05:40:14;13.70;58.90
72883;DHT22;61017;37.812;-122.286;2023-02-15T05:41:45;13.70;58.90
72883;DHT22;61017;37.812;-122.286;2023-02-15T05:43:16;13.70;59.00
72883;DHT22;61017;37.812;-122.286;2023-02-15T05:44:47;13.70;58.90
72883;DHT22;61017;37.812;-122.286;2023-02-15T05:46:18;13.70;58.90
72883;DHT22;61017;37.812;-122.286;2023-02-15T05:47:49;13.70;59.00
72883;DHT22;61017;37.812;-122.286;2023-02-15T05:49:20;13.70;59.10
72883;DHT22;61017;37.812;-122.286;2023-02-15T05:51:05;13.70;59.10
72883;DHT22;61017;37.812;-122.286;2023-02-15T05:52:36;13.70;59.20
72883;DHT22;61017;37.812;-122.286;2023-02-15T05:54:07;13.70;59.20
72883;DHT22;61017;37.812;-122.286;2023-02-15T05:55:41;13.60;59.10
72883;DHT22;61017;37.812;-122.286;2023-02-15T05:57:12;13.70;59.30
72883;DHT22;61017;37.812;-122.286;2023-02-15T05:58:43;13.60;59.10
72883;DHT22;61017;37.812;-122.286;2023-02-15T06:00:14;13.70;59.20
72883;DHT22;61017;37.812;-122.286;2023-02-15T06:01:46;13.70;59.30
72883;DHT22;61017;37.812;-122.286;2023-02-15T06:03:17;13.70;59.30
72883;DHT22;61017;37.812;-122.286;2023-02-15T06:04:48;13.70;59.50
72883;DHT22;61017;37.812;-122.286;2023-02-15T06:06:19;13.70;59.60
72883;DHT22;61017;37.812;-122.286;2023-02-15T06:07:50;13.70;59.50
72883;DHT22;61017;37.812;-122.286;2023-02-15T06:09:21;13.70;59.50
72883;DHT22;61017;37.812;-122.286;2023-02-15T06:10:52;13.70;59.50
72883;DHT22;61017;37.812;-122.286;2023-02-15T06:12:23;13.70;59.60
72883;DHT22;61017;37.812;-122.286;2023-02-15T06:13:54;13.70;59.60
72883;DHT22;61017;37.812;-122.286;2023-02-15T06:15:26;13.70;59.60
72883;DHT22;61017;37.812;-122.286;2023-02-15T06:16:57;13.70;59.70
72883;DHT22;61017;37.812;-122.286;2023-02-15T06:18:28;13.60;59.60
72883;DHT22;61017;37.812;-122.286;2023-02-15T06:19:59;13.70;59.60
72883;DHT22;61017;37.812;-122.286;2023-02-15T06:21:30;13.60;59.60
72883;DHT22;61017;37.812;-122.286;2023-02-15T06:23:01;13.70;59.80
72883;DHT22;61017;37.812;-122.286;2023-02-15T06:24:32;13.70;59.70
72883;DHT22;61017;37.812;-122.286;2023-02-15T06:26:04;13.70;59.70
72883;DHT22;61017;37.812;-122.286;2023-02-15T06:27:35;13.70;59.70
72883;DHT22;61017;37.812;-122.286;2023-02-15T06:29:06;13.60;59.60
72883;DHT22;61017;37.812;-122.286;2023-02-15T06:30:37;13.60;59.70
72883;DHT22;61017;37.812;-122.286;2023-02-15T06:32:08;13.70;59.90
72883;DHT22;61017;37.812;-122.286;2023-02-15T06:33:39;13.60;59.60
72883;DHT22;61017;37.812;-122.286;2023-02-15T06:35:10;13.60;59.70
72883;DHT22;61017;37.812;-122.286;2023-02-15T06:36:41;13.60;59.70
72883;DHT22;61017;37.812;-122.286;2023-02-15T06:38:12;13.60;59.70
72883;DHT22;61017;37.812;-122.286;2023-02-15T06:39:43;13.60;59.70
72883;DHT22;61017;37.812;-122.286;2023-02-15T06:41:14;13.60;59.60
72883;DHT22;61017;37.812;-122.286;2023-02-15T06:42:45;13.60;59.60
72883;DHT22;61017;37.812;-122.286;2023-02-15T06:44:16;13.60;59.50
72883;DHT22;61017;37.812;-122.286;2023-02-15T06:45:48;13.60;59.50
72883;DHT22;61017;37.812;-122.286;2023-02-15T06:47:19;13.60;59.60
72883;DHT22;61017;37.812;-122.286;2023-02-15T06:48:50;13.60;59.60
72883;DHT22;61017;37.812;-122.286;2023-02-15T06:50:21;13.60;59.50
72883;DHT22;61017;37.812;-122.286;2023-02-15T06:51:52;13.60;59.50
72883;DHT22;61017;37.812;-122.286;2023-02-15T06:53:23;13.60;59.40
72883;DHT22;61017;37.812;-122.286;2023-02-15T06:54:54;13.60;59.20
72883;DHT22;61017;37.812;-122.286;2023-02-15T06:56:25;13.60;59.10
72883;DHT22;61017;37.812;-122.286;2023-02-15T06:57:56;13.60;59.00
72883;DHT22;61017;37.812;-122.286;2023-02-15T06:59:27;13.60;59.20
72883;DHT22;61017;37.812;-122.286;2023-02-15T07:00:58;13.60;59.30
72883;DHT22;61017;37.812;-122.286;2023-02-15T07:02:30;13.60;59.40
72883;DHT22;61017;37.812;-122.286;2023-02-15T07:04:01;13.60;59.30
72883;DHT22;61017;37.812;-122.286;2023-02-15T07:05:32;13.60;59.30
72883;DHT22;61017;37.812;-122.286;2023-02-15T07:07:07;13.60;59.30
72883;DHT22;61017;37.812;-122.286;2023-02-15T07:08:38;13.60;59.30
72883;DHT22;61017;37.812;-122.286;2023-02-15T07:10:09;13.60;59.40
72883;DHT22;61017;37.812;-122.286;2023-02-15T07:11:40;13.60;59.50
72883;DHT22;61017;37.812;-122.286;2023-02-15T07:13:11;13.60;59.50
72883;DHT22;61017;37.812;-122.286;2023-02-15T07:14:42;13.60;59.50
72883;DHT22;61017;37.812;-122.286;2023-02-15T07:16:14;13.60;59.30
72883;DHT22;61017;37.812;-122.286;2023-02-15T07:17:45;13.60;59.30
72883;DHT22;61017;37.812;-122.286;2023-02-15T07:19:16;13.60;59.30
72883;DHT22;61017;37.812;-122.286;2023-02-15T07:20:47;13.60;59.30
72883;DHT22;61017;37.812;-122.286;2023-02-15T07:22:18;13.60;59.30
72883;DHT22;61017;37.812;-122.286;2023-02-15T07:23:49;13.60;59.30
72883;DHT22;61017;37.812;-122.286;2023-02-15T07:25:20;13.60;59.30
72883;DHT22;61017;37.812;-122.286;2023-02-15T07:26:51;13.60;59.20
72883;DHT22;61017;37.812;-122.286;2023-02-15T07:28:22;13.60;59.20
72883;DHT22;61017;37.812;-122.286;2023-02-15T07:29:53;13.60;59.00
72883;DHT22;61017;37.812;-122.286;2023-02-15T07:31:24;13.60;59.00
72883;DHT22;61017;37.812;-122.286;2023-02-15T07:32:58;13.60;59.00
72883;DHT22;61017;37.812;-122.286;2023-02-15T07:34:30;13.60;59.10
72883;DHT22;61017;37.812;-122.286;2023-02-15T07:36:02;13.60;59.10
72883;DHT22;61017;37.812;-122.286;2023-02-15T07:37:33;13.60;59.20
72883;DHT22;61017;37.812;-122.286;2023-02-15T07:39:04;13.60;59.00
72883;DHT22;61017;37.812;-122.286;2023-02-15T07:40:35;13.60;59.00
72883;DHT22;61017;37.812;-122.286;2023-02-15T07:42:06;13.60;59.00
72883;DHT22;61017;37.812;-122.286;2023-02-15T07:43:39;13.50;58.80
72883;DHT22;61017;37.812;-122.286;2023-02-15T07:45:10;13.50;58.80
72883;DHT22;61017;37.812;-122.286;2023-02-15T07:46:41;13.50;58.80
72883;DHT22;61017;37.812;-122.286;2023-02-15T07:48:12;13.50;58.80
72883;DHT22;61017;37.812;-122.286;2023-02-15T07:49:44;13.50;58.90
72883;DHT22;61017;37.812;-122.286;2023-02-15T07:51:15;13.50;58.70
72883;DHT22;61017;37.812;-122.286;2023-02-15T07:52:46;13.50;58.80
72883;DHT22;61017;37.812;-122.286;2023-02-15T07:54:18;13.50;58.90
72883;DHT22;61017;37.812;-122.286;2023-02-15T07:55:49;13.50;58.90
72883;DHT22;61017;37.812;-122.286;2023-02-15T07:57:20;13.50;58.80
72883;DHT22;61017;37.812;-122.286;2023-02-15T07:58:51;13.50;58.80
72883;DHT22;61017;37.812;-122.286;2023-02-15T08:00:22;13.50;58.90
72883;DHT22;61017;37.812;-122.286;2023-02-15T08:01:53;13.50;58.80
72883;DHT22;61017;37.812;-122.286;2023-02-15T08:03:24;13.50;58.70
72883;DHT22;61017;37.812;-122.286;2023-02-15T08:04:55;13.50;58.80
72883;DHT22;61017;37.812;-122.286;2023-02-15T08:06:28;13.50;58.90
72883;DHT22;61017;37.812;-122.286;2023-02-15T08:07:59;13.50;58.80
72883;DHT22;61017;37.812;-122.286;2023-02-15T08:09:30;13.50;58.70
72883;DHT22;61017;37.812;-122.286;2023-02-15T08:11:06;13.50;58.70
72883;DHT22;61017;37.812;-122.286;2023-02-15T08:12:37;13.50;58.50
72883;DHT22;61017;37.812;-122.286;2023-02-15T08:15:39;13.50;58.40
72883;DHT22;61017;37.812;-122.286;2023-02-15T08:17:10;13.40;58.30
72883;DHT22;61017;37.812;-122.286;2023-02-15T08:18:41;13.50;58.30
72883;DHT22;61017;37.812;-122.286;2023-02-15T08:20:13;13.50;58.30
72883;DHT22;61017;37.812;-122.286;2023-02-15T08:21:45;13.50;58.30
72883;DHT22;61017;37.812;-122.286;2023-02-15T08:23:16;13.50;58.20
72883;DHT22;61017;37.812;-122.286;2023-02-15T08:24:47;13.50;58.10
72883;DHT22;61017;37.812;-122.286;2023-02-15T08:26:19;13.50;58.10
72883;DHT22;61017;37.812;-122.286;2023-02-15T08:27:50;13.50;58.00
72883;DHT22;61017;37.812;-122.286;2023-02-15T08:29:22;13.50;58.00
72883;DHT22;61017;37.812;-122.286;2023-02-15T08:30:53;13.40;57.70
72883;DHT22;61017;37.812;-122.286;2023-02-15T08:32:24;13.40;57.80
72883;DHT22;61017;37.812;-122.286;2023-02-15T08:33:55;13.40;57.80
72883;DHT22;61017;37.812;-122.286;2023-02-15T08:35:27;13.40;57.80
72883;DHT22;61017;37.812;-122.286;2023-02-15T08:36:58;13.40;57.70
72883;DHT22;61017;37.812;-122.286;2023-02-15T08:38:29;13.40;57.60
72883;DHT22;61017;37.812;-122.286;2023-02-15T08:40:00;13.40;57.70
72883;DHT22;61017;37.812;-122.286;2023-02-15T08:41:32;13.40;57.70
72883;DHT22;61017;37.812;-122.286;2023-02-15T08:43:03;13.40;58.20
72883;DHT22;61017;37.812;-122.286;2023-02-15T08:44:34;13.40;57.50
72883;DHT22;61017;37.812;-122.286;2023-02-15T08:46:05;13.40;57.40
72883;DHT22;61017;37.812;-122.286;2023-02-15T08:47:37;13.40;57.40
72883;DHT22;61017;37.812;-122.286;2023-02-15T08:49:12;13.40;57.30
72883;DHT22;61017;37.812;-122.286;2023-02-15T08:50:43;13.40;57.50
72883;DHT22;61017;37.812;-122.286;2023-02-15T08:52:14;13.40;57.40
72883;DHT22;61017;37.812;-122.286;2023-02-15T08:53:47;13.40;57.30
72883;DHT22;61017;37.812;-122.286;2023-02-15T08:55:18;13.40;56.90
72883;DHT22;61017;37.812;-122.286;2023-02-15T08:56:49;13.40;56.90
72883;DHT22;61017;37.812;-122.286;2023-02-15T08:58:20;13.40;56.90
72883;DHT22;61017;37.812;-122.286;2023-02-15T08:59:51;13.40;56.80
72883;DHT22;61017;37.812;-122.286;2023-02-15T09:01:24;13.40;56.70
72883;DHT22;61017;37.812;-122.286;2023-02-15T09:02:55;13.40;56.90
72883;DHT22;61017;37.812;-122.286;2023-02-15T09:04:26;13.40;56.90
72883;DHT22;61017;37.812;-122.286;2023-02-15T09:05:58;13.40;57.00
72883;DHT22;61017;37.812;-122.286;2023-02-15T09:07:29;13.40;56.70
72883;DHT22;61017;37.812;-122.286;2023-02-15T09:09:01;13.40;56.40
72883;DHT22;61017;37.812;-122.286;2023-02-15T09:10:32;13.40;56.20
72883;DHT22;61017;37.812;-122.286;2023-02-15T09:12:03;13.40;55.90
72883;DHT22;61017;37.812;-122.286;2023-02-15T09:13:34;13.40;56.50
72883;DHT22;61017;37.812;-122.286;2023-02-15T09:15:05;13.40;55.60
72883;DHT22;61017;37.812;-122.286;2023-02-15T09:16:37;13.40;55.70
72883;DHT22;61017;37.812;-122.286;2023-02-15T09:18:08;13.40;55.50
72883;DHT22;61017;37.812;-122.286;2023-02-15T09:19:39;13.30;55.30
72883;DHT22;61017;37.812;-122.286;2023-02-15T09:21:11;13.40;55.30
72883;DHT22;61017;37.812;-122.286;2023-02-15T09:22:42;13.40;55.20
72883;DHT22;61017;37.812;-122.286;2023-02-15T09:24:14;13.40;55.30
72883;DHT22;61017;37.812;-122.286;2023-02-15T09:25:45;13.40;55.20
72883;DHT22;61017;37.812;-122.286;2023-02-15T09:27:16;13.40;55.00
72883;DHT22;61017;37.812;-122.286;2023-02-15T09:28:48;13.30;55.10
72883;DHT22;61017;37.812;-122.286;2023-02-15T09:30:21;13.40;55.10
72883;DHT22;61017;37.812;-122.286;2023-02-15T09:31:52;13.40;55.30
72883;DHT22;61017;37.812;-122.286;2023-02-15T09:33:24;13.40;55.00
72883;DHT22;61017;37.812;-122.286;2023-02-15T09:34:55;13.40;55.00
72883;DHT22;61017;37.812;-122.286;2023-02-15T09:36:27;13.30;55.00
72883;DHT22;61017;37.812;-122.286;2023-02-15T09:37:58;13.40;55.20
72883;DHT22;61017;37.812;-122.286;2023-02-15T09:39:30;13.40;55.20
72883;DHT22;61017;37.812;-122.286;2023-02-15T09:41:05;13.40;55.10
72883;DHT22;61017;37.812;-122.286;2023-02-15T09:46:27;13.40;54.70
72883;DHT22;61017;37.812;-122.286;2023-02-15T09:51:26;13.40;54.70
72883;DHT22;61017;37.812;-122.286;2023-02-15T09:56:31;13.40;54.50